Big Bear Station Historical Data
Daily Summary for May 29, 2017 Units:  English    Metric   Both
Next Day »
Daily Weekly Monthly Yearly Custom
  High: Low: Average:
Temperature: 79.3 °F 41.7 °F 59.1 °F
Dew Point: 42.7 °F 25.0 °F 33.6 °F
Humidity: 79% 15% 44%
Wind Speed: 8.9mph 0.0mph 2mph
Wind Gust: -999.0mph - -
Wind- - West
Pressure: 30.22 in 30.14 in -
Precipitation: 0.00 in    
Historical Graphs
 
 
Tabular Data for May 29, 2017
Time Temperature Dew Point Pressure Wind Wind Speed Wind Gust Humidity Rainfall Rate (Hourly)
00:11 46.8 °F 30.6 °F 30.22 in Calm   -999.0 mph 53% 0 in
00:26 46.4 °F 30.7 °F 30.22 in Calm   -999.0 mph 54% 0 in
00:41 46.0 °F 30.3 °F 30.22 in South 1.7 mph -999.0 mph 54% 0 in
00:57 45.7 °F 30.0 °F 30.21 in Calm   -999.0 mph 54% 0 in
01:12 45.3 °F 32.2 °F 30.21 in Calm   -999.0 mph 60% 0 in
01:27 45.0 °F 30.7 °F 30.20 in Calm   -999.0 mph 57% 0 in
01:42 44.4 °F 29.7 °F 30.20 in Calm   -999.0 mph 56% 0 in
01:57 44.4 °F 32.2 °F 30.20 in Calm   -999.0 mph 62% 0 in
02:13 44.2 °F 32.4 °F 30.20 in South 1.7 mph -999.0 mph 63% 0 in
02:28 44.2 °F 35.4 °F 30.19 in South 1.7 mph -999.0 mph 71% 0 in
02:43 43.9 °F 34.0 °F 30.19 in Calm   -999.0 mph 68% 0 in
02:58 43.3 °F 33.8 °F 30.19 in Calm   -999.0 mph 69% 0 in
03:14 43.3 °F 33.8 °F 30.19 in Calm   -999.0 mph 69% 0 in
03:29 43.0 °F 33.5 °F 30.19 in Calm   -999.0 mph 69% 0 in
03:44 42.8 °F 34.0 °F 30.19 in Calm   -999.0 mph 71% 0 in
03:59 42.3 °F 32.5 °F 30.19 in Calm   -999.0 mph 68% 0 in
04:14 41.9 °F 33.5 °F 30.19 in Calm   -999.0 mph 72% 0 in
04:30 42.1 °F 34.1 °F 30.19 in SSE 2.2 mph -999.0 mph 73% 0 in
04:45 41.7 °F 33.0 °F 30.19 in Calm   -999.0 mph 71% 0 in
05:00 41.9 °F 32.8 °F 30.19 in South 1.7 mph -999.0 mph 70% 0 in
05:15 41.9 °F 33.5 °F 30.19 in South 1.7 mph -999.0 mph 72% 0 in
05:30 41.9 °F 35.2 °F 30.19 in South 1.1 mph -999.0 mph 77% 0 in
05:46 41.9 °F 35.9 °F 30.19 in Calm   -999.0 mph 79% 0 in
06:01 42.1 °F 35.4 °F 30.19 in Calm   -999.0 mph 77% 0 in
06:17 42.6 °F 35.2 °F 30.19 in Calm   -999.0 mph 75% 0 in
06:32 43.5 °F 35.4 °F 30.20 in Calm   -999.0 mph 73% 0 in
06:47 43.9 °F 35.8 °F 30.20 in Calm   -999.0 mph 73% 0 in
07:02 44.2 °F 37.1 °F 30.20 in Calm   -999.0 mph 76% 0 in
07:18 44.8 °F 37.7 °F 30.20 in Calm   -999.0 mph 76% 0 in
07:33 45.9 °F 37.7 °F 30.20 in Calm   -999.0 mph 73% 0 in
07:48 47.7 °F 39.5 °F 30.20 in Calm   -999.0 mph 73% 0 in
08:03 50.0 °F 42.0 °F 30.19 in Calm   -999.0 mph 74% 0 in
08:18 51.1 °F 42.7 °F 30.19 in Calm   -999.0 mph 73% 0 in
08:34 51.6 °F 42.1 °F 30.19 in Calm   -999.0 mph 70% 0 in
08:49 54.3 °F 42.0 °F 30.19 in NNW 1.7 mph -999.0 mph 63% 0 in
09:04 57.2 °F 37.7 °F 30.19 in NW 2.7 mph -999.0 mph 48% 0 in
09:19 59.7 °F 38.9 °F 30.18 in NNW 2.2 mph -999.0 mph 46% 0 in
09:34 63.9 °F 35.0 °F 30.18 in NW 2.2 mph -999.0 mph 34% 0 in
09:50 67.1 °F 28.0 °F 30.18 in WNW 5.3 mph -999.0 mph 23% 0 in
10:06 69.3 °F 26.5 °F 30.18 in NW 8.3 mph -999.0 mph 20% 0 in
10:21 70.0 °F 29.4 °F 30.17 in NW 4.7 mph -999.0 mph 22% 0 in
10:36 70.5 °F 27.5 °F 30.17 in ENE 2.7 mph -999.0 mph 20% 0 in
10:52 72.1 °F 28.8 °F 30.17 in Calm   -999.0 mph 20% 0 in
11:07 73.0 °F 27.0 °F 30.18 in NW 5.8 mph -999.0 mph 18% 0 in
11:22 74.1 °F 25.0 °F 30.17 in NW 5.3 mph -999.0 mph 16% 0 in
11:38 73.4 °F 28.6 °F 30.17 in NNW 4.2 mph -999.0 mph 19% 0 in
11:53 75.0 °F 32.4 °F 30.17 in NNW 3.7 mph -999.0 mph 21% 0 in
12:08 76.5 °F 27.0 °F 30.17 in NNE 3.7 mph -999.0 mph 16% 0 in
12:24 77.7 °F 27.9 °F 30.17 in East 2.7 mph -999.0 mph 16% 0 in
12:39 79.3 °F 27.6 °F 30.17 in NW 4.2 mph -999.0 mph 15% 0 in
12:54 78.3 °F 32.6 °F 30.17 in WNW 3.2 mph -999.0 mph 19% 0 in
13:10 76.3 °F 34.7 °F 30.17 in NW 3.2 mph -999.0 mph 22% 0 in
13:25 73.9 °F 33.8 °F 30.17 in NW 6.8 mph -999.0 mph 23% 0 in
13:41 74.7 °F 34.4 °F 30.17 in WNW 5.8 mph -999.0 mph 23% 0 in
13:56 76.3 °F 35.8 °F 30.17 in NNW 4.2 mph -999.0 mph 23% 0 in
14:11 76.8 °F 32.7 °F 30.16 in NW 3.2 mph -999.0 mph 20% 0 in
14:26 77.5 °F 29.2 °F 30.16 in NNE 3.2 mph -999.0 mph 17% 0 in
14:42 76.8 °F 31.4 °F 30.16 in NNE 4.2 mph -999.0 mph 19% 0 in
14:57 76.6 °F 39.2 °F 30.15 in NW 4.2 mph -999.0 mph 26% 0 in
15:13 77.7 °F 37.0 °F 30.15 in NW 4.7 mph -999.0 mph 23% 0 in
15:28 75.7 °F 41.2 °F 30.15 in NNW 5.3 mph -999.0 mph 29% 0 in
15:43 75.6 °F 40.2 °F 30.15 in NW 5.8 mph -999.0 mph 28% 0 in
15:59 76.1 °F 39.7 °F 30.14 in NNW 4.2 mph -999.0 mph 27% 0 in
16:14 75.4 °F 41.8 °F 30.14 in WNW 8.9 mph -999.0 mph 30% 0 in
16:29 73.9 °F 39.6 °F 30.14 in NW 5.8 mph -999.0 mph 29% 0 in
16:44 75.2 °F 37.0 °F 30.14 in NW 8.3 mph -999.0 mph 25% 0 in
16:59 75.4 °F 35.0 °F 30.14 in NNW 7.8 mph -999.0 mph 23% 0 in
17:15 75.6 °F 35.2 °F 30.14 in North 3.7 mph -999.0 mph 23% 0 in
17:30 76.8 °F 33.9 °F 30.14 in NW 3.2 mph -999.0 mph 21% 0 in
17:45 75.0 °F 37.8 °F 30.14 in West 4.2 mph -999.0 mph 26% 0 in
18:00 74.5 °F 37.4 °F 30.14 in WNW 3.2 mph -999.0 mph 26% 0 in
18:15 72.3 °F 32.4 °F 30.14 in NW 2.7 mph -999.0 mph 23% 0 in
18:31 71.2 °F 39.0 °F 30.14 in West 2.7 mph -999.0 mph 31% 0 in
18:46 72.5 °F 37.5 °F 30.14 in SSW 1.7 mph -999.0 mph 28% 0 in
19:02 71.1 °F 39.7 °F 30.14 in WNW 2.2 mph -999.0 mph 32% 0 in
19:17 68.4 °F 38.2 °F 30.14 in West 3.2 mph -999.0 mph 33% 0 in
19:32 65.3 °F 38.4 °F 30.14 in Calm   -999.0 mph 37% 0 in
19:47 62.8 °F 35.4 °F 30.14 in Calm   -999.0 mph 36% 0 in
20:03 60.4 °F 32.6 °F 30.14 in Calm   -999.0 mph 35% 0 in
20:18 58.8 °F 31.2 °F 30.15 in Calm   -999.0 mph 35% 0 in
20:33 57.6 °F 30.1 °F 30.15 in Calm   -999.0 mph 35% 0 in
20:48 57.0 °F 28.9 °F 30.15 in Calm   -999.0 mph 34% 0 in
21:03 56.1 °F 28.1 °F 30.15 in Calm   -999.0 mph 34% 0 in
21:19 55.0 °F 27.8 °F 30.16 in Calm   -999.0 mph 35% 0 in
21:34 54.0 °F 28.3 °F 30.16 in Calm   -999.0 mph 37% 0 in
21:49 53.2 °F 27.6 °F 30.16 in Calm   -999.0 mph 37% 0 in
22:04 52.3 °F 27.4 °F 30.16 in Calm   -999.0 mph 38% 0 in
22:19 51.8 °F 28.8 °F 30.17 in Calm   -999.0 mph 41% 0 in
22:35 51.1 °F 29.4 °F 30.17 in Calm   -999.0 mph 43% 0 in
22:50 50.5 °F 29.4 °F 30.17 in Calm   -999.0 mph 44% 0 in
23:05 50.0 °F 28.9 °F 30.16 in Calm   -999.0 mph 44% 0 in
23:20 49.3 °F 29.9 °F 30.16 in Calm   -999.0 mph 47% 0 in
23:35 48.7 °F 30.4 °F 30.16 in Calm   -999.0 mph 49% 0 in
23:51 48.2 °F 31.4 °F 30.16 in Calm   -999.0 mph 52% 0 in
Big Bear CA Weather